Juliaetta, ID (83535)

7:34 AM PDT on September 18, 2014 (GMT -0700)
Lamb Road | Change Station
CLOSE
Current Station
Personal Weather Station
Location: Troy, ID
Elevation: 2677 ft
Nearby Weather Stations

Elev 2677 ft 46.72 °N, 116.77 °W | Updated 60 seconds ago

Clear
Clear
60.0 °F
Feels Like 60.0 °F
N
0.0
Wind Variable Wind from WSW

Today
High -- | Low -- °F
--% Chance of Precip.
Yesterday
High -- | Low -- °F
Precip. -- in
6:28 AM 6:52 PM
Waning Crescent, 27% visible
Pressure 29.67 in
Visibility 6.0 miles
Clouds Clear
Dew Point 40 °F
Humidity 48%
Rainfall 0.00 in
Snow Depth 0 in , 0 in , 0 in
UV 0 out of 12
Pollen 7.40 out of 12
PM2.5 Unhealthy for Sensitive Groups
Flu Activity Not available.
METAR KLWS 181356Z 00000KT 6SM HZ CLR 18/08 A2969 RMK AO2 SLP046 T01780078

More Conditions Fewer Conditions

Pressure 29.67 in
Visibility 6.0 miles
Clouds Clear
Dew Point 40 °F
Humidity 48%
Rainfall 0.00 in
Snow Depth 0 in , 0 in , 0 in
UV 0 out of 12
Pollen 7.40 out of 12
PM2.5 Unhealthy for Sensitive Groups
Flu Activity Not available.
METAR KLWS 181356Z 00000KT 6SM HZ CLR 18/08 A2969 RMK AO2 SLP046 T01780078

More Conditions Fewer Conditions

10-Day Weather Forecast

Almanac

Astronomy

Sep. 18, 2014 Rise Set
Actual Time 6:28 AM PDT 6:52 PM PDT
Civil Twilight 5:58 AM PDT 7:22 PM PDT
Nautical Twilight 5:22 AM PDT 7:58 PM PDT
Astronomical Twilight 4:45 AM PDT 8:35 PM PDT
Moon 1:10 AM PDT 3:59 PM PDT
Length of Visible Light 13h 24m
Length of Day
12h 23m
Tomorrow will be 3m 18s shorter.
Waning Crescent, 27% of the Moon is Illuminated
Today
Waning Crescent
Sep 24
New
Oct 1
First Quarter
Oct 8
Full
Oct 15
Last Quarter

Today's Extremes

State Highs State Lows

Community

WunderPhotos

Upload Photos

1,754,355 photos uploaded!

Nearby

Air Quality

  Air Quality AQ Index Pollutant
Yesterday Moderate
PM2.5
Current Unhealthy for Sensitive Groups
PM2.5
Thursday Good
PM2.5
Friday Good
PM2.5

Snow Depth

Station Depth Elevation
Brundage Reservoir 0 in 6300 ft
Squaw Flat 0 in 6240 ft
Myrtle Creek 0 in 3520 ft
Schwartz Lake 0 in 8620 ft
Mill Creek Summit 1 in 8800 ft

Earthquake Activity

City Distance Mag. Time & Date
No recent earthquake activity has been reported nearby.
Minimum magnitude displayed is 2.5.

Coastal Water Temperatures

Place Temperature
No Stations Reporting

Nearby Weather Stations